Saint Peter Port, United Kingdom
Current Conditions -  °F | °C
As of 8:50 AM on Friday 19 Dec 2014 (Local Time) from EGJB Reporting Station
Moderate Rain Moderate Rain  
Wind Chill: 54°   Ceiling: 200
Heat Index: 54°   Visibility: 1.8mi
Dew Point: 54°   Wind: 28mph
Humidity: 100%   Direction: 250°WSW
Pressure: 30"   Gusts: NA
Location:  49.46°N, 2.54°W
Report Text: EGJB 190750Z 25024KT 3000 RADZ BR FEW001 BKN002 12/12 Q1016
Loading
Personal Weather Stations






























Interactive Weather Map New forecast layout! Learn more

10-Day Weather Forecast

Advertisements
Track Severe Weather on mobile